createdAt,value
2022-10-11T00:01:20.638Z,6.03
2022-10-11T00:03:47.348Z,5.30
2022-10-11T00:06:14.104Z,5.82
2022-10-11T00:08:40.698Z,5.00
2022-10-11T00:11:08.066Z,4.90
2022-10-11T00:13:34.923Z,4.93
2022-10-11T00:16:07.807Z,5.05
2022-10-11T00:18:34.728Z,5.50
2022-10-11T00:21:06.197Z,5.50
2022-10-11T00:23:33.429Z,5.40
2022-10-11T00:26:02.081Z,5.18
2022-10-11T00:28:29.086Z,5.37
2022-10-11T00:30:55.790Z,4.60
2022-10-11T00:33:22.549Z,6.32
2022-10-11T00:35:49.348Z,5.22
2022-10-11T00:38:18.213Z,5.03
2022-10-11T00:40:45.655Z,5.53
2022-10-11T00:43:25.632Z,6.40
2022-10-11T00:45:58.270Z,5.72
2022-10-11T00:48:47.949Z,5.72
2022-10-11T00:53:48.605Z,6.90
2022-10-11T00:56:23.774Z,6.60
2022-10-11T00:58:50.828Z,6.15
2022-10-11T01:01:17.763Z,6.75
2022-10-11T01:03:45.183Z,6.35
2022-10-11T01:06:11.862Z,6.30
2022-10-11T01:08:39.097Z,7.88
2022-10-11T01:11:06.559Z,7.93
2022-10-11T01:13:44.889Z,7.95
2022-10-11T01:16:37.775Z,7.38
2022-10-11T01:19:29.106Z,7.30
2022-10-11T01:22:19.090Z,7.50
2022-10-11T01:25:19.841Z,6.88
2022-10-11T01:28:10.669Z,7.38
2022-10-11T01:30:38.510Z,8.02
2022-10-11T01:33:24.628Z,8.30
2022-10-11T01:36:04.107Z,8.20
2022-10-11T01:41:16.975Z,8.90
2022-10-11T01:43:44.205Z,9.52
2022-10-11T01:46:11.693Z,9.68
2022-10-11T01:48:50.119Z,9.25
2022-10-11T01:51:19.576Z,10.32
2022-10-11T01:53:50.819Z,10.63
2022-10-11T01:56:22.837Z,11.48
2022-10-11T01:59:06.615Z,10.55
2022-10-11T02:01:36.140Z,11.65
2022-10-11T02:04:23.783Z,11.38
2022-10-11T02:06:56.293Z,12.35
2022-10-11T02:09:36.514Z,13.43
2022-10-11T02:12:09.262Z,12.88
2022-10-11T02:14:41.793Z,13.27
2022-10-11T02:17:22.923Z,13.38
2022-10-11T02:19:53.140Z,14.85
2022-10-11T02:22:25.070Z,14.15
2022-10-11T02:24:55.531Z,15.70
2022-10-11T02:27:26.828Z,15.25
2022-10-11T02:29:56.262Z,14.73
2022-10-11T02:32:25.379Z,16.20
2022-10-11T02:34:57.576Z,17.17
2022-10-11T02:37:30.241Z,16.55
2022-10-11T02:40:06.603Z,14.95
2022-10-11T02:43:04.824Z,17.27
2022-10-11T02:45:43.884Z,16.40
2022-10-11T02:48:12.403Z,17.33
2022-10-11T02:50:40.371Z,16.58
2022-10-11T02:53:07.275Z,15.85
2022-10-11T02:55:34.178Z,16.13
2022-10-11T02:58:01.223Z,15.93
2022-10-11T03:00:28.410Z,17.77
2022-10-11T03:02:55.040Z,17.58
2022-10-11T03:05:21.589Z,16.20
2022-10-11T03:07:48.221Z,16.65
2022-10-11T03:10:14.766Z,16.42
2022-10-11T03:12:41.777Z,16.50
2022-10-11T03:15:08.691Z,16.13
2022-10-11T03:17:36.843Z,17.02
2022-10-11T03:20:07.288Z,16.35
2022-10-11T03:22:33.962Z,15.75
2022-10-11T03:25:04.004Z,16.27
2022-10-11T03:27:31.736Z,16.65
2022-10-11T03:29:58.727Z,16.27
2022-10-11T03:32:25.782Z,15.77
2022-10-11T03:34:52.442Z,15.48
2022-10-11T03:37:19.036Z,15.35
2022-10-11T03:39:45.900Z,15.07
2022-10-11T03:42:13.983Z,15.27
2022-10-11T03:44:42.186Z,9.50
2022-10-11T03:47:09.045Z,8.23
2022-10-11T03:49:38.791Z,6.60
2022-10-11T03:52:07.846Z,5.80
2022-10-11T03:54:34.386Z,5.30
2022-10-11T03:57:01.183Z,3.80
2022-10-11T03:59:27.714Z,3.70
2022-10-11T04:01:54.377Z,3.47
2022-10-11T04:04:20.994Z,2.65
2022-10-11T04:06:47.620Z,2.47
2022-10-11T04:09:14.193Z,1.70
2022-10-11T04:11:40.703Z,2.30
2022-10-11T04:14:07.310Z,2.08
2022-10-11T04:16:35.159Z,1.55
2022-10-11T04:19:01.694Z,1.70
2022-10-11T04:21:28.254Z,1.80
2022-10-11T04:23:54.983Z,0.65
2022-10-11T04:26:21.511Z,0.88
2022-10-11T04:28:48.137Z,0.75
2022-10-11T04:31:14.871Z,0.98
2022-10-11T04:33:41.396Z,0.93
2022-10-11T04:36:08.636Z,0.70
2022-10-11T04:38:35.438Z,1.17
2022-10-11T04:41:29.312Z,1.15
2022-10-11T04:43:56.109Z,0.60
2022-10-11T04:46:23.411Z,1.55
2022-10-11T04:48:50.164Z,0.45
2022-10-11T04:51:17.485Z,0.50
2022-10-11T04:53:44.297Z,1.17
2022-10-11T04:56:11.505Z,0.52
2022-10-11T04:58:42.271Z,0.30
2022-10-11T05:01:09.730Z,0.52
2022-10-11T05:03:36.778Z,0.63
2022-10-11T05:06:06.100Z,0.90
2022-10-11T05:08:33.718Z,0.80
2022-10-11T05:11:02.587Z,1.30
2022-10-11T05:13:30.500Z,0.80
2022-10-11T05:15:58.188Z,1.05
2022-10-11T05:18:25.185Z,1.08
2022-10-11T05:21:19.704Z,0.52
2022-10-11T05:23:47.965Z,0.47
2022-10-11T05:26:15.743Z,1.42
2022-10-11T05:28:43.003Z,1.13
2022-10-11T05:31:10.240Z,0.85
2022-10-11T05:33:36.991Z,0.90
2022-10-11T05:36:04.600Z,0.77
2022-10-11T05:38:31.564Z,1.00
2022-10-11T05:41:02.953Z,0.30
2022-10-11T05:43:30.411Z,0.80
2022-10-11T05:45:57.255Z,1.38
2022-10-11T05:48:26.813Z,1.00
2022-10-11T05:51:02.974Z,1.40
2022-10-11T05:53:29.955Z,0.70
2022-10-11T05:55:56.797Z,1.35
2022-10-11T05:58:23.407Z,0.60
2022-10-11T06:00:50.116Z,1.10
2022-10-11T06:03:17.575Z,1.00
2022-10-11T06:05:44.180Z,1.23
2022-10-11T06:08:11.133Z,0.80
2022-10-11T06:10:38.549Z,1.15
2022-10-11T06:13:06.173Z,0.63
2022-10-11T06:15:33.328Z,1.05
2022-10-11T06:18:00.049Z,1.10
2022-10-11T06:20:27.154Z,1.00
2022-10-11T06:22:53.910Z,0.75
2022-10-11T06:25:20.493Z,0.80
2022-10-11T06:27:47.068Z,0.75
2022-10-11T06:30:14.399Z,1.30
2022-10-11T06:32:40.981Z,1.33
2022-10-11T06:35:08.209Z,1.23
2022-10-11T06:37:34.799Z,0.57
2022-10-11T06:40:02.081Z,0.52
2022-10-11T06:42:28.623Z,1.23
2022-10-11T06:44:55.118Z,0.88
2022-10-11T06:47:21.714Z,1.02
2022-10-11T06:49:48.259Z,0.98
2022-10-11T06:52:14.938Z,1.20
2022-10-11T06:54:44.927Z,1.35
2022-10-11T06:57:12.585Z,0.77
2022-10-11T06:59:39.230Z,0.60
2022-10-11T07:02:06.771Z,21.02
2022-10-11T07:04:33.965Z,2.28
2022-10-11T07:07:01.155Z,0.90
2022-10-11T07:09:27.837Z,0.60
2022-10-11T07:11:54.399Z,0.68
2022-10-11T07:14:20.939Z,1.00
2022-10-11T07:16:47.660Z,1.20
2022-10-11T07:19:14.301Z,0.80
2022-10-11T07:21:40.823Z,1.33
2022-10-11T07:24:07.592Z,0.98
2022-10-11T07:26:38.792Z,0.85
2022-10-11T07:29:08.055Z,1.02
2022-10-11T07:31:37.367Z,2.07
2022-10-11T07:34:04.071Z,0.90
2022-10-11T07:36:30.724Z,0.75
2022-10-11T07:38:57.301Z,2.72
2022-10-11T07:41:23.986Z,1.52
2022-10-11T07:43:50.979Z,0.80
2022-10-11T07:46:18.309Z,0.98
2022-10-11T07:48:44.993Z,0.57
2022-10-11T07:51:12.985Z,1.35
2022-10-11T07:53:45.352Z,0.85
2022-10-11T07:56:14.196Z,0.95
2022-10-11T07:58:42.002Z,0.82
2022-10-11T08:01:10.451Z,0.80
2022-10-11T08:03:38.100Z,1.23
2022-10-11T08:06:07.787Z,1.02
2022-10-11T08:08:35.128Z,1.30
2022-10-11T08:11:02.192Z,1.83
2022-10-11T08:13:28.864Z,0.68
2022-10-11T08:15:55.544Z,1.73
2022-10-11T08:18:22.442Z,1.35
2022-10-11T08:20:49.156Z,1.35
2022-10-11T08:23:16.859Z,1.23
2022-10-11T08:25:46.092Z,1.33
2022-10-11T08:28:17.150Z,1.25
2022-10-11T08:30:48.737Z,1.88
2022-10-11T08:33:16.794Z,2.00
2022-10-11T08:35:43.773Z,2.28
2022-10-11T08:38:10.719Z,1.13
2022-10-11T08:40:37.890Z,1.92
2022-10-11T08:43:08.455Z,0.98
2022-10-11T08:45:50.253Z,1.38
2022-10-11T08:48:34.245Z,1.25
2022-10-11T08:51:02.690Z,1.02
2022-10-11T08:53:46.386Z,1.08
2022-10-11T08:56:14.710Z,1.20
2022-10-11T08:58:50.754Z,1.48
2022-10-11T09:01:28.137Z,1.23
2022-10-11T09:03:55.318Z,1.10
2022-10-11T09:06:43.531Z,1.20
2022-10-11T09:09:23.391Z,1.15
2022-10-11T09:15:10.354Z,1.42
2022-10-11T09:18:04.579Z,1.55
2022-10-11T09:20:45.988Z,1.02
2022-10-11T09:23:31.196Z,1.10
2022-10-11T09:26:25.595Z,1.67
2022-10-11T09:29:21.697Z,0.82
2022-10-11T09:31:57.048Z,0.98
2022-10-11T09:34:32.399Z,0.60
2022-10-11T09:37:42.076Z,1.42
2022-10-11T09:42:47.316Z,1.48
2022-10-11T09:45:20.167Z,0.80
2022-10-11T09:47:48.175Z,1.15
2022-10-11T09:50:25.731Z,1.58
2022-10-11T09:52:57.402Z,1.70
2022-10-11T09:55:41.050Z,0.50
2022-10-11T09:58:31.059Z,0.85
2022-10-11T10:01:07.956Z,0.75
2022-10-11T10:03:39.820Z,0.50
2022-10-11T10:06:08.551Z,1.65
2022-10-11T10:08:36.005Z,1.02
2022-10-11T10:11:06.743Z,0.75
2022-10-11T10:13:51.331Z,1.02
2022-10-11T10:16:28.430Z,1.02
2022-10-11T10:18:59.126Z,0.90
2022-10-11T10:21:32.559Z,1.17
2022-10-11T10:24:03.270Z,1.23
2022-10-11T10:26:31.137Z,1.00
2022-10-11T10:29:08.901Z,1.65
2022-10-11T10:32:01.865Z,2.50
2022-10-11T10:34:39.773Z,9.48
2022-10-11T10:37:14.053Z,1.40
2022-10-11T10:39:47.067Z,0.85
2022-10-11T10:42:18.832Z,1.17
2022-10-11T10:44:52.428Z,0.90
2022-10-11T10:47:50.515Z,1.00
2022-10-11T10:50:31.196Z,1.13
2022-10-11T10:53:31.578Z,1.52
2022-10-11T10:56:10.276Z,1.10
2022-10-11T10:58:49.033Z,6.90
2022-10-11T11:01:29.065Z,1.50
2022-10-11T11:04:13.949Z,1.58
2022-10-11T11:07:15.129Z,3.20
2022-10-11T11:10:13.180Z,0.82
2022-10-11T11:13:02.353Z,1.13
2022-10-11T11:15:38.678Z,2.35
2022-10-11T11:18:27.128Z,1.35
2022-10-11T11:21:18.771Z,8.02
2022-10-11T11:23:45.340Z,1.40
2022-10-11T11:26:27.510Z,1.00
2022-10-11T11:28:57.100Z,0.70
2022-10-11T11:32:01.937Z,2.13
2022-10-11T11:34:37.889Z,1.17
2022-10-11T11:37:11.729Z,0.82
2022-10-11T11:39:48.316Z,0.68
2022-10-11T11:42:39.329Z,0.88
2022-10-11T11:45:14.934Z,1.70
2022-10-11T11:47:47.159Z,1.20
2022-10-11T11:50:22.608Z,1.08
2022-10-11T11:52:58.379Z,1.35
2022-10-11T11:55:37.375Z,1.85
2022-10-11T11:58:37.424Z,1.63
2022-10-11T12:01:18.012Z,0.98
2022-10-11T12:03:52.528Z,1.42
2022-10-11T12:06:27.854Z,1.20
2022-10-11T12:09:02.008Z,1.55
2022-10-11T12:11:40.271Z,1.25
2022-10-11T12:14:28.123Z,1.53
2022-10-11T12:17:09.307Z,1.45
2022-10-11T12:19:37.686Z,1.58
2022-10-11T12:22:17.932Z,1.10
2022-10-11T12:25:20.986Z,1.50
2022-10-11T12:27:48.766Z,1.23
2022-10-11T12:30:53.308Z,1.75
2022-10-11T12:33:51.326Z,1.65
2022-10-11T12:36:56.725Z,1.70
2022-10-11T12:39:23.552Z,1.70
2022-10-11T12:41:55.755Z,1.27
2022-10-11T12:44:23.849Z,1.25
2022-10-11T12:46:50.346Z,1.08
2022-10-11T12:49:52.891Z,0.50
2022-10-11T12:52:47.520Z,0.82
2022-10-11T12:55:35.041Z,1.38
2022-10-11T12:58:13.963Z,0.60
2022-10-11T13:00:41.281Z,1.05
2022-10-11T13:03:32.809Z,0.77
2022-10-11T13:06:04.690Z,1.20
2022-10-11T13:08:34.946Z,0.98
2022-10-11T13:11:06.392Z,0.90
2022-10-11T13:13:43.913Z,0.32
2022-10-11T13:16:21.221Z,0.98
2022-10-11T13:18:50.925Z,0.95
2022-10-11T13:24:02.286Z,0.68
2022-10-11T13:26:31.293Z,1.58
2022-10-11T13:29:00.169Z,5.57
2022-10-11T13:31:27.438Z,1.42
2022-10-11T13:33:56.628Z,0.77
2022-10-11T13:36:26.858Z,1.10
2022-10-11T13:38:57.320Z,1.00
2022-10-11T13:41:27.682Z,0.77
2022-10-11T13:43:56.665Z,1.30
2022-10-11T13:46:26.145Z,1.33
2022-10-11T13:49:05.645Z,1.98
2022-10-11T13:51:37.037Z,5.25
2022-10-11T13:54:13.099Z,0.75
2022-10-11T13:56:51.580Z,0.80
2022-10-11T13:59:23.889Z,0.95
2022-10-11T14:01:57.855Z,3.15
2022-10-11T14:04:29.537Z,2.38
2022-10-11T14:07:00.584Z,1.02
2022-10-11T14:09:31.923Z,1.05
2022-10-11T14:12:39.644Z,1.70
2022-10-11T14:15:31.326Z,1.08
2022-10-11T14:17:59.159Z,2.30
2022-10-11T14:20:38.226Z,1.00
2022-10-11T14:23:05.547Z,1.65
2022-10-11T14:25:32.673Z,0.90
2022-10-11T14:27:59.802Z,1.13
2022-10-11T14:30:28.026Z,0.30
2022-10-11T14:32:57.854Z,0.70
2022-10-11T14:35:30.776Z,0.88
2022-10-11T14:40:27.423Z,0.82
2022-10-11T14:42:54.205Z,1.27
2022-10-11T14:45:23.930Z,1.05
2022-10-11T14:47:51.864Z,1.05
2022-10-11T14:50:39.332Z,1.33
2022-10-11T14:53:07.577Z,1.60
2022-10-11T14:55:36.734Z,1.20
2022-10-11T14:58:05.676Z,2.15
2022-10-11T15:00:33.098Z,3.67
2022-10-11T15:02:59.706Z,1.92
2022-10-11T15:05:33.708Z,0.55
2022-10-11T15:08:02.083Z,0.77
2022-10-11T15:10:35.034Z,0.80
2022-10-11T15:13:02.489Z,1.13
2022-10-11T15:15:32.798Z,1.17
2022-10-11T15:18:01.812Z,1.77
2022-10-11T15:20:31.440Z,1.05
2022-10-11T15:22:59.024Z,0.85
2022-10-11T15:25:26.284Z,1.23
2022-10-11T15:27:53.544Z,0.55
2022-10-11T15:30:41.864Z,0.68
2022-10-11T15:33:08.892Z,0.82
2022-10-11T15:35:35.708Z,1.77
2022-10-11T15:38:02.434Z,1.85
2022-10-11T15:40:35.392Z,1.10
2022-10-11T15:43:03.041Z,2.40
2022-10-11T15:45:30.215Z,0.65
2022-10-11T15:47:57.135Z,1.13
2022-10-11T15:50:39.319Z,0.75
2022-10-11T15:53:12.597Z,0.60
2022-10-11T15:55:44.769Z,0.30
2022-10-11T15:58:21.981Z,2.15
2022-10-11T16:00:50.154Z,0.90
2022-10-11T16:03:17.820Z,0.82
2022-10-11T16:05:44.647Z,1.15
2022-10-11T16:08:11.481Z,0.73
2022-10-11T16:10:39.015Z,0.90
2022-10-11T16:13:06.153Z,0.52
2022-10-11T16:15:33.533Z,0.68
2022-10-11T16:18:00.284Z,0.38
2022-10-11T16:20:27.049Z,1.45
2022-10-11T16:22:54.871Z,0.95
2022-10-11T16:25:22.479Z,0.88
2022-10-11T16:27:50.230Z,0.60
2022-10-11T16:30:17.859Z,0.77
2022-10-11T16:32:45.176Z,0.65
2022-10-11T16:35:16.019Z,1.35
2022-10-11T16:37:43.214Z,0.90
2022-10-11T16:40:11.709Z,1.20
2022-10-11T16:42:39.395Z,1.17
2022-10-11T16:45:06.795Z,2.20
2022-10-11T16:47:34.021Z,0.77
2022-10-11T16:50:00.937Z,1.27
2022-10-11T16:52:27.574Z,1.25
2022-10-11T16:54:54.311Z,1.67
2022-10-11T16:57:21.007Z,0.90
2022-10-11T16:59:47.659Z,0.68
2022-10-11T17:02:17.796Z,1.20
2022-10-11T17:04:45.091Z,1.13
2022-10-11T17:07:13.036Z,0.70
2022-10-11T17:09:43.980Z,1.67
2022-10-11T17:12:13.658Z,1.45
2022-10-11T17:14:41.105Z,1.40
2022-10-11T17:17:09.316Z,0.95
2022-10-11T17:19:44.851Z,0.55
2022-10-11T17:22:14.011Z,1.70
2022-10-11T17:24:40.949Z,1.60
2022-10-11T17:27:08.419Z,1.02
2022-10-11T17:29:38.441Z,0.95
2022-10-11T17:32:05.845Z,1.23
2022-10-11T17:34:33.187Z,0.90
2022-10-11T17:36:59.855Z,0.88
2022-10-11T17:39:26.558Z,0.93
2022-10-11T17:41:53.167Z,1.42
2022-10-11T17:44:20.161Z,1.80
2022-10-11T17:46:47.439Z,1.70
2022-10-11T17:49:14.191Z,2.05
2022-10-11T17:51:41.475Z,1.45
2022-10-11T17:54:12.787Z,1.55
2022-10-11T17:56:41.752Z,2.08
2022-10-11T17:59:14.560Z,1.95
2022-10-11T18:01:41.558Z,3.20
2022-10-11T18:04:13.398Z,2.33
2022-10-11T18:06:40.077Z,2.40
2022-10-11T18:09:07.186Z,2.90
2022-10-11T18:11:34.126Z,2.50
2022-10-11T18:14:01.012Z,1.90
2022-10-11T18:16:30.114Z,11.65
2022-10-11T18:18:57.526Z,3.85
2022-10-11T18:21:29.857Z,3.05
2022-10-11T18:24:02.521Z,3.10
2022-10-11T18:26:30.762Z,2.05
2022-10-11T18:28:58.138Z,1.20
2022-10-11T18:31:27.633Z,1.90
2022-10-11T18:33:55.101Z,1.65
2022-10-11T18:36:25.737Z,1.70
2022-10-11T18:38:57.121Z,1.85
2022-10-11T18:41:30.405Z,2.42
2022-10-11T18:43:59.482Z,2.13
2022-10-11T18:46:26.462Z,2.45
2022-10-11T18:48:54.925Z,1.67
2022-10-11T18:51:26.965Z,2.70
2022-10-11T18:53:54.856Z,1.80
2022-10-11T18:56:24.580Z,1.65
2022-10-11T19:01:22.054Z,1.50
2022-10-11T19:03:52.562Z,2.53
2022-10-11T19:06:22.275Z,3.25
2022-10-11T19:11:36.841Z,1.20
2022-10-11T19:14:07.198Z,1.33
2022-10-11T19:16:38.037Z,1.50
2022-10-11T19:19:05.358Z,1.50
2022-10-11T19:21:32.132Z,0.98
2022-10-11T19:23:59.102Z,1.35
2022-10-11T19:26:33.910Z,1.42
2022-10-11T19:29:04.241Z,1.40
2022-10-11T19:31:32.568Z,0.98
2022-10-11T19:33:59.814Z,1.48
2022-10-11T19:36:33.985Z,0.90
2022-10-11T19:39:04.653Z,1.17
2022-10-11T19:41:32.556Z,1.85
2022-10-11T19:43:59.990Z,1.67
2022-10-11T19:49:17.694Z,1.75
2022-10-11T19:51:44.893Z,1.67
2022-10-11T19:54:13.789Z,1.25
2022-10-11T19:56:40.916Z,1.30
2022-10-11T19:59:07.868Z,1.20
2022-10-11T20:01:36.251Z,1.55
2022-10-11T20:04:09.105Z,1.10
2022-10-11T20:06:38.991Z,1.10
2022-10-11T20:09:28.384Z,1.38
2022-10-11T20:11:54.801Z,1.65
2022-10-11T20:14:21.814Z,1.20
2022-10-11T20:16:50.335Z,1.17
2022-10-11T20:19:17.516Z,1.15
2022-10-11T20:21:45.023Z,0.75
2022-10-11T20:24:12.160Z,1.05
2022-10-11T20:26:39.346Z,1.50
2022-10-11T20:29:06.394Z,1.33
2022-10-11T20:31:34.641Z,0.82
2022-10-11T20:34:04.086Z,1.42
2022-10-11T20:36:32.197Z,1.45
2022-10-11T20:38:59.532Z,1.60
2022-10-11T20:41:28.940Z,1.40
2022-10-11T20:43:57.706Z,1.27
2022-10-11T20:46:27.918Z,1.80
2022-10-11T20:49:01.355Z,1.50
2022-10-11T20:51:30.702Z,0.88
2022-10-11T20:53:58.725Z,1.73
2022-10-11T20:56:25.713Z,2.80
2022-10-11T20:58:56.963Z,1.23
2022-10-11T21:01:32.182Z,1.58
2022-10-11T21:04:00.877Z,4.28
2022-10-11T21:06:28.885Z,3.13
2022-10-11T21:08:56.478Z,1.85
2022-10-11T21:11:31.268Z,1.42
2022-10-11T21:13:59.456Z,1.98
2022-10-11T21:16:27.371Z,3.05
2022-10-11T21:18:56.524Z,2.92
2022-10-11T21:21:26.549Z,2.13
2022-10-11T21:23:55.594Z,1.38
2022-10-11T21:26:22.341Z,1.13
2022-10-11T21:28:49.244Z,1.15
2022-10-11T21:31:17.944Z,1.80
2022-10-11T21:33:45.105Z,1.25
2022-10-11T21:36:20.680Z,1.60
2022-10-11T21:38:48.333Z,1.10
2022-10-11T21:41:20.628Z,1.63
2022-10-11T21:43:48.049Z,1.33
2022-10-11T21:46:47.642Z,2.00
2022-10-11T21:49:13.896Z,1.75
2022-10-11T21:51:40.493Z,1.83
2022-10-11T21:54:07.240Z,2.60
2022-10-11T21:56:34.056Z,2.50
2022-10-11T21:59:00.796Z,2.25
2022-10-11T22:01:27.789Z,2.15
2022-10-11T22:03:55.115Z,2.05
2022-10-11T22:06:21.884Z,1.92
2022-10-11T22:08:49.949Z,2.20
2022-10-11T22:11:16.829Z,2.50
2022-10-11T22:13:43.526Z,2.47
2022-10-11T22:16:12.330Z,2.22
2022-10-11T22:18:39.440Z,1.73
2022-10-11T22:21:13.463Z,2.58
2022-10-11T22:23:41.576Z,6.95
2022-10-11T22:26:14.810Z,2.75
2022-10-11T22:28:41.978Z,2.55
2022-10-11T22:31:10.099Z,2.28
2022-10-11T22:33:37.142Z,2.78
2022-10-11T22:36:08.532Z,1.52
2022-10-11T22:38:36.589Z,1.85
2022-10-11T22:41:03.472Z,2.05
2022-10-11T22:43:30.159Z,2.42
2022-10-11T22:45:56.779Z,2.35
2022-10-11T22:48:23.518Z,1.45
2022-10-11T22:50:50.174Z,1.70
2022-10-11T22:53:17.494Z,1.48
2022-10-11T22:55:44.205Z,2.47
2022-10-11T22:58:10.927Z,1.85
2022-10-11T23:00:37.816Z,1.98
2022-10-11T23:03:07.006Z,1.45
2022-10-11T23:05:36.775Z,2.13
2022-10-11T23:10:30.172Z,1.58
2022-10-11T23:12:56.773Z,1.92
2022-10-11T23:15:23.492Z,1.63
2022-10-11T23:17:50.121Z,1.98
2022-10-11T23:20:16.771Z,1.58
2022-10-11T23:22:43.433Z,1.65
2022-10-11T23:25:10.153Z,1.65
2022-10-11T23:27:37.102Z,1.73
2022-10-11T23:30:05.160Z,1.60
2022-10-11T23:32:32.480Z,1.70
2022-10-11T23:34:59.155Z,1.95
2022-10-11T23:37:25.860Z,1.20
2022-10-11T23:39:52.394Z,1.92
2022-10-11T23:42:18.983Z,2.20
2022-10-11T23:44:45.761Z,1.30
2022-10-11T23:47:12.532Z,1.55
2022-10-11T23:49:39.076Z,1.80
2022-10-11T23:52:05.655Z,2.35
2022-10-11T23:54:32.288Z,2.20
2022-10-11T23:56:58.884Z,2.33
2022-10-11T23:59:25.425Z,1.90
